Affton, Missouri
Current Conditions -  °F | °C
As of 9:53 PM on Wednesday 22 Oct 2014 (Local Time) from KCPS Reporting Station
Clear Clear  
Wind Chill:   Ceiling: Unl
Heat Index:   Visibility: 10mi
Dew Point:   Wind: 0mph
Humidity: 89%   Direction: NA
Pressure: 30.24"   Gusts: NA
Location:  38.55°N, 90.33°W
Report Text: KCPS 230253Z 00000KT 10SM CLR 07/05 A3024 RMK AO2 SLP241 T00670050 51011
Loading
Personal Weather Stations






























Interactive Weather Map New forecast layout! Learn more

10-Day Weather Forecast

Advertisements
Track Severe Weather on mobile